createdAt,value
2019-02-21T00:01:06.078Z,64.24
2019-02-21T00:03:35.664Z,64.22
2019-02-21T00:06:06.287Z,64.20
2019-02-21T00:08:35.937Z,64.22
2019-02-21T00:11:05.356Z,64.23
2019-02-21T00:13:35.139Z,64.27
2019-02-21T00:16:04.560Z,64.33
2019-02-21T00:18:35.324Z,64.35
2019-02-21T00:21:04.732Z,64.35
2019-02-21T00:23:34.401Z,64.45
2019-02-21T00:26:04.446Z,64.47
2019-02-21T00:28:34.510Z,64.52
2019-02-21T00:31:04.355Z,64.50
2019-02-21T00:33:33.836Z,64.51
2019-02-21T00:36:03.589Z,64.51
2019-02-21T00:38:33.048Z,64.56
2019-02-21T00:41:02.548Z,64.52
2019-02-21T00:43:31.949Z,64.52
2019-02-21T00:46:01.412Z,64.56
2019-02-21T00:48:30.888Z,64.52
2019-02-21T00:51:00.312Z,64.46
2019-02-21T00:53:29.789Z,64.50
2019-02-21T00:56:00.290Z,64.53
2019-02-21T00:58:30.025Z,64.56
2019-02-21T01:00:59.626Z,64.55
2019-02-21T01:03:29.086Z,64.45
2019-02-21T01:05:59.605Z,64.45
2019-02-21T01:08:29.073Z,64.47
2019-02-21T01:10:58.547Z,64.52
2019-02-21T01:13:28.520Z,64.49
2019-02-21T01:15:57.988Z,64.52
2019-02-21T01:18:27.491Z,64.51
2019-02-21T01:20:56.970Z,64.58
2019-02-21T01:23:27.711Z,64.62
2019-02-21T01:25:57.185Z,64.62
2019-02-21T01:28:26.616Z,64.76
2019-02-21T01:30:57.197Z,64.87
2019-02-21T01:33:26.772Z,64.88
2019-02-21T01:35:56.250Z,65.03
2019-02-21T01:38:25.685Z,65.03
2019-02-21T01:40:55.232Z,65.09
2019-02-21T01:43:24.665Z,65.14
2019-02-21T01:45:54.124Z,65.15
2019-02-21T01:48:23.530Z,65.19
2019-02-21T01:50:53.027Z,65.22
2019-02-21T01:53:22.475Z,65.21
2019-02-21T01:55:51.894Z,65.31
2019-02-21T01:58:21.346Z,65.35
2019-02-21T02:00:50.778Z,65.45
2019-02-21T02:03:20.180Z,65.49
2019-02-21T02:05:49.754Z,65.53
2019-02-21T02:08:19.228Z,65.54
2019-02-21T02:10:48.693Z,65.61
2019-02-21T02:13:24.693Z,65.59
2019-02-21T02:15:49.274Z,65.56
2019-02-21T02:18:18.692Z,65.61
2019-02-21T02:20:48.164Z,65.65
2019-02-21T02:23:17.586Z,65.75
2019-02-21T02:25:47.054Z,65.74
2019-02-21T02:28:16.544Z,65.75
2019-02-21T02:30:45.973Z,65.77
2019-02-21T02:33:15.392Z,65.69
2019-02-21T02:35:44.863Z,65.72
2019-02-21T02:38:14.265Z,65.68
2019-02-21T02:40:43.770Z,65.64
2019-02-21T02:43:13.176Z,65.63
2019-02-21T02:45:42.896Z,65.68
2019-02-21T02:48:12.315Z,65.67
2019-02-21T02:50:41.914Z,65.64
2019-02-21T02:53:11.442Z,65.62
2019-02-21T02:55:40.904Z,65.63
2019-02-21T02:58:10.338Z,65.55
2019-02-21T03:00:39.813Z,65.59
2019-02-21T03:03:09.235Z,65.62
2019-02-21T03:05:39.678Z,65.61
2019-02-21T03:08:09.161Z,65.56
2019-02-21T03:10:38.621Z,65.57
2019-02-21T03:13:08.050Z,65.64
2019-02-21T03:15:37.506Z,65.71
2019-02-21T03:18:06.920Z,65.70
2019-02-21T03:20:36.379Z,65.75
2019-02-21T03:23:05.790Z,65.75
2019-02-21T03:25:35.258Z,65.72
2019-02-21T03:28:04.952Z,65.70
2019-02-21T03:30:34.381Z,65.78
2019-02-21T03:33:04.565Z,65.85
2019-02-21T03:35:34.034Z,65.87
2019-02-21T03:38:04.415Z,65.94
2019-02-21T03:40:33.855Z,66.08
2019-02-21T03:43:04.414Z,66.14
2019-02-21T03:45:33.820Z,66.21
2019-02-21T03:48:03.408Z,66.23
2019-02-21T03:50:32.850Z,66.23
2019-02-21T03:53:03.249Z,66.27
2019-02-21T03:55:32.656Z,66.20
2019-02-21T03:58:02.201Z,66.22
2019-02-21T04:00:31.628Z,66.25
2019-02-21T04:03:01.150Z,66.22
2019-02-21T04:05:30.613Z,66.27
2019-02-21T04:08:00.066Z,66.27
2019-02-21T04:10:29.490Z,66.28
2019-02-21T04:12:59.018Z,66.25
2019-02-21T04:15:28.612Z,66.30
2019-02-21T04:17:58.083Z,66.34
2019-02-21T04:20:27.521Z,66.37
2019-02-21T04:22:57.000Z,66.46
2019-02-21T04:25:26.464Z,66.50
2019-02-21T04:27:55.889Z,66.53
2019-02-21T04:30:25.341Z,66.57
2019-02-21T04:32:54.783Z,66.54
2019-02-21T04:35:25.309Z,66.52
2019-02-21T04:37:54.776Z,66.60
2019-02-21T04:40:24.321Z,66.62
2019-02-21T04:42:53.740Z,66.59
2019-02-21T04:45:23.160Z,66.70
2019-02-21T04:47:52.641Z,66.66
2019-02-21T04:50:22.056Z,66.69
2019-02-21T04:52:51.522Z,66.70
2019-02-21T04:55:20.954Z,66.79
2019-02-21T04:57:50.426Z,66.78
2019-02-21T05:00:19.900Z,66.87
2019-02-21T05:02:49.364Z,66.96
2019-02-21T05:05:18.793Z,66.91
2019-02-21T05:07:48.274Z,66.76
2019-02-21T05:10:17.691Z,66.61
2019-02-21T05:12:47.228Z,66.57
2019-02-21T05:15:16.705Z,66.55
2019-02-21T05:17:46.249Z,66.51
2019-02-21T05:20:15.640Z,66.51
2019-02-21T05:22:45.111Z,66.63
2019-02-21T05:25:14.528Z,66.67
2019-02-21T05:27:45.654Z,66.68
2019-02-21T05:30:16.793Z,66.72
2019-02-21T05:32:47.875Z,66.74
2019-02-21T05:35:24.529Z,66.70
2019-02-21T05:37:58.336Z,66.70
2019-02-21T05:40:46.757Z,66.73
2019-02-21T05:43:20.549Z,66.76
2019-02-21T05:45:51.706Z,66.73
2019-02-21T05:48:25.687Z,66.84
2019-02-21T05:51:02.663Z,66.86
2019-02-21T05:53:36.125Z,66.85
2019-02-21T05:56:07.229Z,66.86
2019-02-21T05:58:46.999Z,66.90
2019-02-21T06:01:27.081Z,66.92
2019-02-21T06:04:12.921Z,66.83
2019-02-21T06:06:46.899Z,66.82
2019-02-21T06:09:18.007Z,66.87
2019-02-21T06:12:05.435Z,66.96
2019-02-21T06:14:51.802Z,67.11
2019-02-21T06:17:22.882Z,67.10
2019-02-21T06:20:02.991Z,67.08
2019-02-21T06:22:36.749Z,67.12
2019-02-21T06:25:07.999Z,67.11
2019-02-21T06:27:39.093Z,67.00
2019-02-21T06:30:10.866Z,66.97
2019-02-21T06:32:40.936Z,67.01
2019-02-21T06:35:11.240Z,67.14
2019-02-21T06:37:40.702Z,67.19
2019-02-21T06:40:10.221Z,67.28
2019-02-21T06:42:39.695Z,67.35
2019-02-21T06:45:09.176Z,67.51
2019-02-21T06:47:38.642Z,67.40
2019-02-21T06:50:08.138Z,67.49
2019-02-21T06:52:37.587Z,67.48
2019-02-21T06:55:07.250Z,67.54
2019-02-21T06:57:37.081Z,67.45
2019-02-21T07:00:07.045Z,67.42
2019-02-21T07:02:36.567Z,67.48
2019-02-21T07:05:05.989Z,67.45
2019-02-21T07:07:35.416Z,67.49
2019-02-21T07:10:07.073Z,67.51
2019-02-21T07:12:36.523Z,67.40
2019-02-21T07:15:10.106Z,67.47
2019-02-21T07:17:48.751Z,67.40
2019-02-21T07:20:12.926Z,67.46
2019-02-21T07:22:42.128Z,67.48
2019-02-21T07:25:13.314Z,67.43
2019-02-21T07:27:43.713Z,67.40
2019-02-21T07:30:19.770Z,67.53
2019-02-21T07:32:44.559Z,67.41
2019-02-21T07:35:14.031Z,67.27
2019-02-21T07:37:43.527Z,67.05
2019-02-21T07:40:19.840Z,66.95
2019-02-21T07:42:44.178Z,66.74
2019-02-21T07:45:13.790Z,66.66
2019-02-21T07:47:43.387Z,66.71
2019-02-21T07:50:13.722Z,66.63
2019-02-21T07:52:43.254Z,66.76
2019-02-21T07:55:12.708Z,66.79
2019-02-21T07:57:42.205Z,66.86
2019-02-21T08:00:12.894Z,66.93
2019-02-21T08:02:42.368Z,66.97
2019-02-21T08:05:11.856Z,67.09
2019-02-21T08:07:41.318Z,67.25
2019-02-21T08:10:12.311Z,67.35
2019-02-21T08:12:41.725Z,67.41
2019-02-21T08:15:12.941Z,67.29
2019-02-21T08:17:42.354Z,67.13
2019-02-21T08:20:12.651Z,67.01
2019-02-21T08:22:42.120Z,67.21
2019-02-21T08:25:11.695Z,67.22
2019-02-21T08:27:42.617Z,67.24
2019-02-21T08:30:15.418Z,67.00
2019-02-21T08:32:46.591Z,66.91
2019-02-21T08:35:16.014Z,66.60
2019-02-21T08:37:45.473Z,66.40
2019-02-21T08:40:14.904Z,66.22
2019-02-21T08:42:44.379Z,65.98
2019-02-21T08:45:13.794Z,65.86
2019-02-21T08:47:43.265Z,65.63
2019-02-21T08:50:12.766Z,65.68
2019-02-21T08:52:42.189Z,65.46
2019-02-21T08:55:11.780Z,65.22
2019-02-21T08:57:41.249Z,64.79
2019-02-21T09:00:13.805Z,64.52
2019-02-21T09:02:43.476Z,64.49
2019-02-21T09:05:14.018Z,64.33
2019-02-21T09:07:46.274Z,63.80
2019-02-21T09:10:15.153Z,63.54
2019-02-21T09:12:48.244Z,63.45
2019-02-21T09:15:17.333Z,63.67
2019-02-21T09:17:46.768Z,63.47
2019-02-21T09:20:16.309Z,63.36
2019-02-21T09:22:45.732Z,63.07
2019-02-21T09:25:16.251Z,62.89
2019-02-21T09:27:45.683Z,62.71
2019-02-21T09:30:17.684Z,62.73
2019-02-21T09:32:47.134Z,62.63
2019-02-21T09:35:16.614Z,62.30
2019-02-21T09:37:46.119Z,62.05
2019-02-21T09:40:15.712Z,61.71
2019-02-21T09:42:46.392Z,61.50
2019-02-21T09:45:17.843Z,61.16
2019-02-21T09:47:47.412Z,61.18
2019-02-21T09:50:16.951Z,60.67
2019-02-21T09:52:46.398Z,60.71
2019-02-21T09:55:17.602Z,60.30
2019-02-21T09:57:47.024Z,60.27
2019-02-21T10:00:19.074Z,60.27
2019-02-21T10:02:48.582Z,60.09
2019-02-21T10:05:18.052Z,59.82
2019-02-21T10:07:47.474Z,59.86
2019-02-21T10:10:26.899Z,59.65
2019-02-21T10:12:55.541Z,59.52
2019-02-21T10:15:24.983Z,59.68
2019-02-21T10:17:54.697Z,59.44
2019-02-21T10:20:24.157Z,59.52
2019-02-21T10:22:57.067Z,59.45
2019-02-21T10:25:30.740Z,59.64
2019-02-21T10:28:00.581Z,59.86
2019-02-21T10:30:30.064Z,60.08
2019-02-21T10:32:59.524Z,60.44
2019-02-21T10:35:28.991Z,60.56
2019-02-21T10:37:58.422Z,60.64
2019-02-21T10:40:27.897Z,60.88
2019-02-21T10:42:57.322Z,60.85
2019-02-21T10:45:26.802Z,60.89
2019-02-21T10:47:56.269Z,60.76
2019-02-21T10:50:25.707Z,60.63
2019-02-21T10:52:55.215Z,60.50
2019-02-21T10:55:24.795Z,60.69
2019-02-21T10:57:54.360Z,60.24
2019-02-21T11:00:30.587Z,59.82
2019-02-21T11:03:00.070Z,59.88
2019-02-21T11:05:29.501Z,59.83
2019-02-21T11:07:59.336Z,59.04
2019-02-21T11:10:29.910Z,58.85
2019-02-21T11:12:59.373Z,58.59
2019-02-21T11:15:28.816Z,57.64
2019-02-21T11:17:58.354Z,57.05
2019-02-21T11:20:27.893Z,57.48
2019-02-21T11:22:57.358Z,57.21
2019-02-21T11:25:26.846Z,56.47
2019-02-21T11:27:56.272Z,56.70
2019-02-21T11:30:25.747Z,56.87
2019-02-21T11:32:55.167Z,56.08
2019-02-21T11:35:24.734Z,55.80
2019-02-21T11:37:54.214Z,55.81
2019-02-21T11:40:23.707Z,55.97
2019-02-21T11:42:53.201Z,55.74
2019-02-21T11:45:22.622Z,55.76
2019-02-21T11:47:52.104Z,55.67
2019-02-21T11:50:21.602Z,55.43
2019-02-21T11:52:51.072Z,54.98
2019-02-21T11:55:22.331Z,55.63
2019-02-21T11:57:51.805Z,55.34
2019-02-21T12:00:23.793Z,55.27
2019-02-21T12:02:54.392Z,55.50
2019-02-21T12:05:32.196Z,55.69
2019-02-21T12:07:55.554Z,56.26
2019-02-21T12:10:25.069Z,56.87
2019-02-21T12:12:54.547Z,57.63
2019-02-21T12:15:24.110Z,58.14
2019-02-21T12:17:53.812Z,58.37
2019-02-21T12:20:23.302Z,58.78
2019-02-21T12:22:52.776Z,59.32
2019-02-21T12:25:25.262Z,59.68
2019-02-21T12:27:54.711Z,60.02
2019-02-21T12:30:24.566Z,59.81
2019-02-21T12:32:54.078Z,59.91
2019-02-21T12:35:29.676Z,59.44
2019-02-21T12:37:54.806Z,60.16
2019-02-21T12:40:24.480Z,59.87
2019-02-21T12:42:53.999Z,59.98
2019-02-21T12:45:25.299Z,59.84
2019-02-21T12:47:54.860Z,59.45
2019-02-21T12:50:24.343Z,59.24
2019-02-21T12:52:53.871Z,59.20
2019-02-21T12:55:29.262Z,59.33
2019-02-21T12:57:54.498Z,59.06
2019-02-21T13:00:24.409Z,58.93
2019-02-21T13:02:53.871Z,58.90
2019-02-21T13:05:23.295Z,58.45
2019-02-21T13:07:52.720Z,58.39
2019-02-21T13:10:23.736Z,58.09
2019-02-21T13:12:53.194Z,58.24
2019-02-21T13:15:22.613Z,58.25
2019-02-21T13:17:52.484Z,58.03
2019-02-21T13:20:21.915Z,57.72
2019-02-21T13:22:51.389Z,58.24
2019-02-21T13:25:20.866Z,58.08
2019-02-21T13:27:50.286Z,57.94
2019-02-21T13:30:19.838Z,58.11
2019-02-21T13:32:49.297Z,57.95
2019-02-21T13:35:18.720Z,58.16
2019-02-21T13:37:48.188Z,58.37
2019-02-21T13:40:20.933Z,58.00
2019-02-21T13:42:49.168Z,58.18
2019-02-21T13:45:18.773Z,58.13
2019-02-21T13:47:48.455Z,58.06
2019-02-21T13:50:19.125Z,57.78
2019-02-21T13:52:48.717Z,57.37
2019-02-21T13:55:18.167Z,57.58
2019-02-21T13:57:47.682Z,57.36
2019-02-21T14:00:21.714Z,57.41
2019-02-21T14:02:51.249Z,57.44
2019-02-21T14:05:20.674Z,57.64
2019-02-21T14:07:50.221Z,57.50
2019-02-21T14:10:19.692Z,57.59
2019-02-21T14:12:49.723Z,58.16
2019-02-21T14:15:22.301Z,58.54
2019-02-21T14:17:51.809Z,58.67
2019-02-21T14:20:21.499Z,58.53
2019-02-21T14:22:51.266Z,58.95
2019-02-21T14:25:20.975Z,58.83
2019-02-21T14:27:50.509Z,58.99
2019-02-21T14:30:21.433Z,58.90
2019-02-21T14:32:51.000Z,59.01
2019-02-21T14:35:20.635Z,59.42
2019-02-21T14:37:50.113Z,59.28
2019-02-21T14:40:19.543Z,58.76
2019-02-21T14:42:49.347Z,58.33
2019-02-21T14:45:24.014Z,58.52
2019-02-21T14:47:53.557Z,58.74
2019-02-21T14:50:22.979Z,59.04
2019-02-21T14:52:52.612Z,59.06
2019-02-21T14:55:22.195Z,59.13
2019-02-21T14:57:51.699Z,59.50
2019-02-21T15:00:26.838Z,59.73
2019-02-21T15:02:57.922Z,59.84
2019-02-21T15:05:27.786Z,59.94
2019-02-21T15:07:57.560Z,59.97
2019-02-21T15:10:27.038Z,59.82
2019-02-21T15:12:56.480Z,59.99
2019-02-21T15:15:27.112Z,60.36
2019-02-21T15:18:07.016Z,60.65
2019-02-21T15:20:36.455Z,60.91
2019-02-21T15:22:59.062Z,61.11
2019-02-21T15:25:28.546Z,61.40
2019-02-21T15:27:58.087Z,61.76
2019-02-21T15:30:28.626Z,62.81
2019-02-21T15:32:58.105Z,63.21
2019-02-21T15:35:27.653Z,63.64
2019-02-21T15:37:57.098Z,63.84
2019-02-21T15:40:26.609Z,63.95
2019-02-21T15:42:56.408Z,63.77
2019-02-21T15:45:31.924Z,64.03
2019-02-21T15:48:01.671Z,64.37
2019-02-21T15:50:31.235Z,64.67
2019-02-21T15:53:00.662Z,65.13
2019-02-21T15:55:32.170Z,65.97
2019-02-21T15:58:04.359Z,66.55
2019-02-21T16:00:32.509Z,66.88
2019-02-21T16:03:01.933Z,67.31
2019-02-21T16:05:32.736Z,67.99
2019-02-21T16:08:02.491Z,69.02
2019-02-21T16:10:32.124Z,69.30
2019-02-21T16:13:04.304Z,70.11
2019-02-21T16:15:32.889Z,69.85
2019-02-21T16:18:02.296Z,70.00
2019-02-21T16:20:31.898Z,70.05
2019-02-21T16:23:01.412Z,70.15
2019-02-21T16:25:34.433Z,70.28
2019-02-21T16:28:04.387Z,70.26
2019-02-21T16:30:33.924Z,70.58
2019-02-21T16:33:04.420Z,70.85
2019-02-21T16:35:33.945Z,71.03
2019-02-21T16:38:05.099Z,71.22
2019-02-21T16:40:34.812Z,71.40
2019-02-21T16:43:04.331Z,71.64
2019-02-21T16:45:42.863Z,71.80
2019-02-21T16:48:05.556Z,71.95
2019-02-21T16:50:36.053Z,72.18
2019-02-21T16:53:05.748Z,72.21
2019-02-21T16:55:35.244Z,72.15
2019-02-21T16:58:04.676Z,72.34
2019-02-21T17:00:42.461Z,72.42
2019-02-21T17:03:05.862Z,72.41
2019-02-21T17:05:35.743Z,72.47
2019-02-21T17:08:06.286Z,72.58
2019-02-21T17:10:35.919Z,72.65
2019-02-21T17:13:05.327Z,72.78
2019-02-21T17:15:34.898Z,72.86
2019-02-21T17:18:04.407Z,72.92
2019-02-21T17:20:33.977Z,73.13
2019-02-21T17:23:04.411Z,73.07
2019-02-21T17:25:34.036Z,73.01
2019-02-21T17:28:04.340Z,73.03
2019-02-21T17:30:34.050Z,73.47
2019-02-21T17:33:04.363Z,73.49
2019-02-21T17:35:33.925Z,73.75
2019-02-21T17:38:04.668Z,73.89
2019-02-21T17:40:34.484Z,74.12
2019-02-21T17:43:04.828Z,74.38
2019-02-21T17:45:34.443Z,74.95
2019-02-21T17:48:04.602Z,75.07
2019-02-21T17:50:34.168Z,75.18
2019-02-21T17:53:04.626Z,75.69
2019-02-21T17:55:34.386Z,76.03
2019-02-21T17:58:04.394Z,76.15
2019-02-21T18:00:35.692Z,76.67
2019-02-21T18:03:05.234Z,77.20
2019-02-21T18:05:34.728Z,77.75
2019-02-21T18:08:05.434Z,77.83
2019-02-21T18:10:35.044Z,78.49
2019-02-21T18:13:04.856Z,79.08
2019-02-21T18:15:35.832Z,79.26
2019-02-21T18:18:05.719Z,79.64
2019-02-21T18:20:35.260Z,79.48
2019-02-21T18:23:04.967Z,79.62
2019-02-21T18:25:40.771Z,79.79
2019-02-21T18:28:11.274Z,80.07
2019-02-21T18:30:40.843Z,80.27
2019-02-21T18:33:10.283Z,80.10
2019-02-21T18:35:39.813Z,80.20
2019-02-21T18:38:09.251Z,80.24
2019-02-21T18:40:38.954Z,80.41
2019-02-21T18:43:08.684Z,80.72
2019-02-21T18:45:38.276Z,80.52
2019-02-21T18:48:07.784Z,80.62
2019-02-21T18:50:38.589Z,80.80
2019-02-21T18:53:08.165Z,80.70
2019-02-21T18:55:37.802Z,80.67
2019-02-21T18:58:07.648Z,80.76
2019-02-21T19:00:37.316Z,80.76
2019-02-21T19:03:06.738Z,80.87
2019-02-21T19:05:36.605Z,80.73
2019-02-21T19:08:06.094Z,80.81
2019-02-21T19:10:35.719Z,80.98
2019-02-21T19:13:07.662Z,80.94
2019-02-21T19:15:36.365Z,81.14
2019-02-21T19:18:06.336Z,81.16
2019-02-21T19:20:36.529Z,81.52
2019-02-21T19:23:06.925Z,81.63
2019-02-21T19:25:36.503Z,82.00
2019-02-21T19:28:05.991Z,81.86
2019-02-21T19:30:56.785Z,82.12
2019-02-21T19:33:26.982Z,82.12
2019-02-21T19:35:56.540Z,82.32
2019-02-21T19:38:31.831Z,82.75
2019-02-21T19:41:01.470Z,82.78
2019-02-21T19:43:30.916Z,83.11
2019-02-21T19:46:00.625Z,83.60
2019-02-21T19:48:30.450Z,83.83
2019-02-21T19:51:00.005Z,84.53
2019-02-21T19:53:29.791Z,84.32
2019-02-21T19:55:59.361Z,85.10
2019-02-21T19:58:28.818Z,84.87
2019-02-21T20:00:58.485Z,84.86
2019-02-21T20:03:28.127Z,85.36
2019-02-21T20:05:57.990Z,85.42
2019-02-21T20:08:27.547Z,85.39
2019-02-21T20:10:57.359Z,85.40
2019-02-21T20:13:26.913Z,85.38
2019-02-21T20:15:56.477Z,85.62
2019-02-21T20:18:26.060Z,85.44
2019-02-21T20:20:55.794Z,85.74
2019-02-21T20:23:25.339Z,86.27
2019-02-21T20:25:55.970Z,86.27
2019-02-21T20:28:25.437Z,86.03
2019-02-21T20:30:55.049Z,86.30
2019-02-21T20:33:25.153Z,86.22
2019-02-21T20:35:54.732Z,86.16
2019-02-21T20:38:31.786Z,86.34
2019-02-21T20:40:55.458Z,86.57
2019-02-21T20:43:25.128Z,86.33
2019-02-21T20:45:54.675Z,86.27
2019-02-21T20:48:24.108Z,86.13
2019-02-21T20:50:56.968Z,86.27
2019-02-21T20:53:24.789Z,86.07
2019-02-21T20:55:54.350Z,86.04
2019-02-21T20:58:23.780Z,86.01
2019-02-21T21:00:53.390Z,85.89
2019-02-21T21:03:24.127Z,85.91
2019-02-21T21:05:54.016Z,85.94
2019-02-21T21:08:23.734Z,86.05
2019-02-21T21:10:53.678Z,86.29
2019-02-21T21:13:23.210Z,86.26
2019-02-21T21:15:52.663Z,86.34
2019-02-21T21:18:22.168Z,86.62
2019-02-21T21:20:51.587Z,86.91
2019-02-21T21:23:21.226Z,86.89
2019-02-21T21:25:50.658Z,87.17
2019-02-21T21:28:20.164Z,87.25
2019-02-21T21:30:49.668Z,87.23
2019-02-21T21:33:19.201Z,87.65
2019-02-21T21:35:48.708Z,87.96
2019-02-21T21:38:24.263Z,87.83
2019-02-21T21:40:50.287Z,88.08
2019-02-21T21:43:19.781Z,88.11
2019-02-21T21:45:49.207Z,88.18
2019-02-21T21:48:18.755Z,88.37
2019-02-21T21:50:48.494Z,88.63
2019-02-21T21:53:18.326Z,88.51
2019-02-21T21:55:47.757Z,88.50
2019-02-21T21:58:17.286Z,88.66
2019-02-21T22:00:46.769Z,88.88
2019-02-21T22:03:17.254Z,88.67
2019-02-21T22:05:46.795Z,88.91
2019-02-21T22:08:16.203Z,88.79
2019-02-21T22:10:45.665Z,88.99
2019-02-21T22:13:15.129Z,89.33
2019-02-21T22:15:44.610Z,89.07
2019-02-21T22:18:14.038Z,89.28
2019-02-21T22:20:43.515Z,89.51
2019-02-21T22:23:12.917Z,89.54
2019-02-21T22:25:42.405Z,89.61
2019-02-21T22:28:11.862Z,89.62
2019-02-21T22:30:41.698Z,89.70
2019-02-21T22:33:11.167Z,90.00
2019-02-21T22:35:40.698Z,89.81
2019-02-21T22:38:10.156Z,89.88
2019-02-21T22:40:39.582Z,90.05
2019-02-21T22:43:10.053Z,89.96
2019-02-21T22:45:39.517Z,90.14
2019-02-21T22:48:09.045Z,90.25
2019-02-21T22:50:38.522Z,90.11
2019-02-21T22:53:07.993Z,90.08
2019-02-21T22:55:37.465Z,90.16
2019-02-21T22:58:06.931Z,90.12
2019-02-21T23:00:58.862Z,90.04
2019-02-21T23:03:34.709Z,90.01
2019-02-21T23:06:24.395Z,89.99
2019-02-21T23:08:54.699Z,90.19
2019-02-21T23:11:24.248Z,89.80
2019-02-21T23:13:54.726Z,89.87
2019-02-21T23:16:24.558Z,89.93
2019-02-21T23:18:54.051Z,89.82
2019-02-21T23:21:23.596Z,90.01
2019-02-21T23:23:53.171Z,89.83
2019-02-21T23:26:22.620Z,89.83
2019-02-21T23:28:52.123Z,89.87
2019-02-21T23:31:21.584Z,89.81
2019-02-21T23:33:55.309Z,89.74
2019-02-21T23:36:24.761Z,89.69
2019-02-21T23:38:54.190Z,89.58
2019-02-21T23:41:23.673Z,89.55
2019-02-21T23:43:53.095Z,89.50
2019-02-21T23:46:22.932Z,89.53
2019-02-21T23:48:52.454Z,89.66
2019-02-21T23:51:21.881Z,89.65
2019-02-21T23:53:51.358Z,89.71
2019-02-21T23:56:20.769Z,89.67
2019-02-21T23:58:50.244Z,89.64
